createdAt,value
2023-05-17T00:00:26.988Z,12.28
2023-05-17T00:02:54.917Z,12.27
2023-05-17T00:05:23.153Z,12.30
2023-05-17T00:07:51.507Z,12.32
2023-05-17T00:10:19.652Z,12.32
2023-05-17T00:12:47.590Z,12.33
2023-05-17T00:15:15.782Z,12.34
2023-05-17T00:17:45.262Z,12.35
2023-05-17T00:20:13.926Z,12.33
2023-05-17T00:22:43.311Z,12.36
2023-05-17T00:25:11.310Z,12.37
2023-05-17T00:27:39.668Z,12.38
2023-05-17T00:30:08.997Z,12.39
2023-05-17T00:32:36.968Z,12.39
2023-05-17T00:35:07.168Z,12.40
2023-05-17T00:37:35.149Z,12.41
2023-05-17T00:40:03.276Z,12.42
2023-05-17T00:42:31.267Z,12.43
2023-05-17T00:44:59.181Z,12.45
2023-05-17T00:47:27.086Z,12.42
2023-05-17T00:49:55.065Z,12.44
2023-05-17T00:52:24.586Z,12.43
2023-05-17T00:54:53.232Z,12.42
2023-05-17T00:57:21.544Z,12.44
2023-05-17T00:59:52.111Z,12.44
2023-05-17T01:02:20.092Z,12.44
2023-05-17T01:04:49.275Z,12.43
2023-05-17T01:07:17.687Z,12.43
2023-05-17T01:09:47.248Z,12.45
2023-05-17T01:12:25.681Z,12.45
2023-05-17T01:15:04.665Z,12.45
2023-05-17T01:17:40.885Z,12.44
2023-05-17T01:20:18.642Z,12.41
2023-05-17T01:22:55.166Z,12.41
2023-05-17T01:25:35.261Z,12.43
2023-05-17T01:28:06.528Z,12.40
2023-05-17T01:30:36.967Z,12.39
2023-05-17T01:33:05.368Z,12.36
2023-05-17T01:35:33.331Z,12.37
2023-05-17T01:38:01.336Z,12.38
2023-05-17T01:40:29.732Z,12.40
2023-05-17T01:43:01.373Z,12.39
2023-05-17T01:45:38.064Z,12.43
2023-05-17T01:48:16.663Z,12.43
2023-05-17T01:50:46.697Z,12.40
2023-05-17T01:53:22.477Z,12.41
2023-05-17T01:55:53.046Z,12.41
2023-05-17T01:58:24.336Z,12.41
2023-05-17T02:00:56.858Z,12.40
2023-05-17T02:03:25.370Z,12.39
2023-05-17T02:05:53.333Z,12.38
2023-05-17T02:08:21.281Z,12.39
2023-05-17T02:10:49.244Z,12.39
2023-05-17T02:13:17.238Z,12.35
2023-05-17T02:15:45.196Z,12.33
2023-05-17T02:18:14.701Z,12.27
2023-05-17T02:20:42.800Z,12.26
2023-05-17T02:23:10.705Z,12.24
2023-05-17T02:25:38.716Z,12.23
2023-05-17T02:28:06.568Z,12.19
2023-05-17T02:30:34.524Z,12.19
2023-05-17T02:33:02.498Z,12.15
2023-05-17T02:35:31.884Z,12.09
2023-05-17T02:37:59.869Z,12.07
2023-05-17T02:40:27.904Z,12.08
2023-05-17T02:42:55.844Z,12.08
2023-05-17T02:45:23.736Z,12.06
2023-05-17T02:47:51.625Z,12.07
2023-05-17T02:50:19.739Z,12.06
2023-05-17T02:52:49.004Z,12.05
2023-05-17T02:55:17.163Z,12.07
2023-05-17T02:57:45.199Z,12.06
2023-05-17T03:00:14.093Z,12.04
2023-05-17T03:02:42.044Z,12.03
2023-05-17T03:05:10.295Z,12.04
2023-05-17T03:07:38.953Z,12.03
2023-05-17T03:10:09.069Z,12.04
2023-05-17T03:12:36.968Z,12.04
2023-05-17T03:15:05.449Z,12.01
2023-05-17T03:17:33.572Z,12.01
2023-05-17T03:20:01.626Z,12.03
2023-05-17T03:22:29.621Z,12.04
2023-05-17T03:24:57.516Z,12.06
2023-05-17T03:27:27.012Z,12.08
2023-05-17T03:29:55.036Z,12.10
2023-05-17T03:32:22.967Z,12.11
2023-05-17T03:34:50.959Z,12.11
2023-05-17T03:37:18.828Z,12.13
2023-05-17T03:39:46.812Z,12.12
2023-05-17T03:42:14.730Z,12.09
2023-05-17T03:44:44.126Z,12.13
2023-05-17T03:47:12.148Z,12.14
2023-05-17T03:49:40.129Z,12.15
2023-05-17T03:52:08.265Z,12.19
2023-05-17T03:54:36.252Z,12.20
2023-05-17T03:57:04.190Z,12.24
2023-05-17T03:59:32.212Z,12.25
2023-05-17T04:02:01.789Z,12.24
2023-05-17T04:04:29.797Z,12.26
2023-05-17T04:06:57.950Z,12.25
2023-05-17T04:09:25.933Z,12.27
2023-05-17T04:11:53.811Z,12.27
2023-05-17T04:14:22.479Z,12.30
2023-05-17T04:16:50.482Z,12.30
2023-05-17T04:19:19.976Z,12.31
2023-05-17T04:21:48.608Z,12.29
2023-05-17T04:24:18.771Z,12.30
2023-05-17T04:26:46.687Z,12.30
2023-05-17T04:29:14.714Z,12.31
2023-05-17T04:31:43.068Z,12.35
2023-05-17T04:34:11.072Z,12.37
2023-05-17T04:36:40.530Z,12.36
2023-05-17T04:39:08.423Z,12.39
2023-05-17T04:41:36.346Z,12.37
2023-05-17T04:44:04.265Z,12.34
2023-05-17T04:46:32.206Z,12.27
2023-05-17T04:49:00.355Z,12.27
2023-05-17T04:51:28.730Z,12.21
2023-05-17T04:53:58.497Z,12.19
2023-05-17T04:56:26.589Z,12.16
2023-05-17T04:58:54.559Z,12.16
2023-05-17T05:01:22.797Z,12.10
2023-05-17T05:03:50.891Z,12.10
2023-05-17T05:06:18.852Z,12.13
2023-05-17T05:08:46.921Z,12.10
2023-05-17T05:11:16.490Z,12.09
2023-05-17T05:13:44.408Z,12.07
2023-05-17T05:16:12.361Z,12.08
2023-05-17T05:18:40.499Z,12.10
2023-05-17T05:21:08.550Z,12.13
2023-05-17T05:23:36.517Z,12.16
2023-05-17T05:26:05.328Z,12.15
2023-05-17T05:28:34.649Z,12.15
2023-05-17T05:31:02.767Z,12.13
2023-05-17T05:33:32.053Z,12.13
2023-05-17T05:36:00.156Z,12.11
2023-05-17T05:38:28.200Z,12.11
2023-05-17T05:40:56.199Z,12.10
2023-05-17T05:45:36.993Z,11.77
2023-05-17T05:48:07.396Z,11.39
2023-05-17T05:50:35.859Z,11.11
2023-05-17T05:53:17.383Z,11.11
2023-05-17T05:55:46.482Z,11.07
2023-05-17T05:58:14.525Z,11.02
2023-05-17T06:00:43.806Z,10.93
2023-05-17T06:03:11.865Z,10.84
2023-05-17T06:05:40.607Z,10.78
2023-05-17T06:08:08.811Z,10.76
2023-05-17T06:10:36.761Z,10.72
2023-05-17T06:13:04.823Z,10.70
2023-05-17T06:15:35.621Z,10.56
2023-05-17T06:18:05.511Z,10.56
2023-05-17T06:20:33.409Z,10.43
2023-05-17T06:23:01.979Z,10.35
2023-05-17T06:25:29.975Z,10.29
2023-05-17T06:27:57.865Z,10.20
2023-05-17T06:30:27.944Z,10.11
2023-05-17T06:32:56.532Z,10.03
2023-05-17T06:35:25.917Z,9.99
2023-05-17T06:37:53.928Z,9.91
2023-05-17T06:40:21.970Z,9.80
2023-05-17T06:42:49.983Z,9.75
2023-05-17T06:45:18.087Z,9.66
2023-05-17T06:47:46.295Z,9.56
2023-05-17T06:50:14.369Z,9.48
2023-05-17T06:52:43.629Z,9.36
2023-05-17T06:55:11.666Z,9.18
2023-05-17T06:57:39.628Z,8.96
2023-05-17T07:00:11.363Z,8.82
2023-05-17T07:02:39.663Z,8.69
2023-05-17T07:05:08.500Z,8.68
2023-05-17T07:07:36.599Z,8.52
2023-05-17T07:10:07.163Z,8.44
2023-05-17T07:12:35.287Z,8.46
2023-05-17T07:15:03.308Z,8.50
2023-05-17T07:17:31.340Z,8.49
2023-05-17T07:19:59.362Z,8.54
2023-05-17T07:22:27.373Z,8.56
2023-05-17T07:24:55.366Z,8.43
2023-05-17T07:27:24.896Z,8.40
2023-05-17T07:29:52.865Z,8.41
2023-05-17T07:32:20.938Z,8.47
2023-05-17T07:34:48.930Z,8.57
2023-05-17T07:37:19.114Z,8.60
2023-05-17T07:39:47.145Z,8.73
2023-05-17T07:42:15.104Z,8.80
2023-05-17T07:44:44.436Z,8.81
2023-05-17T07:47:12.542Z,8.79
2023-05-17T07:49:40.554Z,8.78
2023-05-17T07:52:08.733Z,8.73
2023-05-17T07:54:36.699Z,8.55
2023-05-17T07:57:04.878Z,8.29
2023-05-17T07:59:32.989Z,8.18
2023-05-17T08:02:03.038Z,8.01
2023-05-17T08:04:31.020Z,7.89
2023-05-17T08:07:00.974Z,7.79
2023-05-17T08:09:28.911Z,7.66
2023-05-17T08:11:57.535Z,7.53
2023-05-17T08:14:27.055Z,7.50
2023-05-17T08:16:55.013Z,7.47
2023-05-17T08:19:24.440Z,7.42
2023-05-17T08:21:52.543Z,7.37
2023-05-17T08:24:20.917Z,7.34
2023-05-17T08:26:48.817Z,7.25
2023-05-17T08:29:17.180Z,7.30
2023-05-17T08:31:45.597Z,7.26
2023-05-17T08:34:13.579Z,7.17
2023-05-17T08:36:42.985Z,7.18
2023-05-17T08:39:11.540Z,7.07
2023-05-17T08:41:39.548Z,7.05
2023-05-17T08:44:07.855Z,7.09
2023-05-17T08:46:37.007Z,7.09
2023-05-17T08:49:07.232Z,7.05
2023-05-17T08:51:36.088Z,6.90
2023-05-17T08:54:08.458Z,6.88
2023-05-17T08:56:40.222Z,6.86
2023-05-17T08:59:10.633Z,6.89
2023-05-17T09:01:41.950Z,6.81
2023-05-17T09:04:10.184Z,6.88
2023-05-17T09:06:38.630Z,6.83
2023-05-17T09:09:08.688Z,6.83
2023-05-17T09:11:36.794Z,6.79
2023-05-17T09:14:06.154Z,6.76
2023-05-17T09:16:36.333Z,6.80
2023-05-17T09:19:05.954Z,6.76
2023-05-17T09:21:34.856Z,6.72
2023-05-17T09:24:07.200Z,6.72
2023-05-17T09:26:41.955Z,6.73
2023-05-17T09:29:11.605Z,6.73
2023-05-17T09:31:40.617Z,6.75
2023-05-17T09:34:09.336Z,6.76
2023-05-17T09:36:39.305Z,6.82
2023-05-17T09:39:12.229Z,6.85
2023-05-17T09:41:46.974Z,6.85
2023-05-17T09:44:15.806Z,6.82
2023-05-17T09:46:45.865Z,6.85
2023-05-17T09:49:14.216Z,6.77
2023-05-17T09:51:43.808Z,6.79
2023-05-17T09:54:12.241Z,6.82
2023-05-17T09:56:41.165Z,6.84
2023-05-17T09:59:14.754Z,6.84
2023-05-17T10:01:45.508Z,6.80
2023-05-17T10:04:14.710Z,6.80
2023-05-17T10:06:49.853Z,6.87
2023-05-17T10:09:22.455Z,6.87
2023-05-17T10:11:53.645Z,6.88
2023-05-17T10:14:28.165Z,6.91
2023-05-17T10:16:57.279Z,6.89
2023-05-17T10:19:26.806Z,6.84
2023-05-17T10:22:00.285Z,6.85
2023-05-17T10:24:36.765Z,6.87
2023-05-17T10:27:06.557Z,6.87
2023-05-17T10:29:36.399Z,6.87
2023-05-17T10:32:07.377Z,6.87
2023-05-17T10:34:36.760Z,6.85
2023-05-17T10:37:05.861Z,6.89
2023-05-17T10:39:38.472Z,6.92
2023-05-17T10:44:41.918Z,6.97
2023-05-17T10:47:10.174Z,6.97
2023-05-17T10:49:41.493Z,6.97
2023-05-17T10:52:14.501Z,6.96
2023-05-17T10:54:44.433Z,7.01
2023-05-17T10:57:21.508Z,7.12
2023-05-17T11:00:01.921Z,7.10
2023-05-17T11:02:30.327Z,7.12
2023-05-17T11:05:00.442Z,7.12
2023-05-17T11:07:29.592Z,7.09
2023-05-17T11:10:07.282Z,7.17
2023-05-17T11:12:38.502Z,7.30
2023-05-17T11:15:11.812Z,7.34
2023-05-17T11:17:54.151Z,7.38
2023-05-17T11:20:33.276Z,7.42
2023-05-17T11:23:04.252Z,7.37
2023-05-17T11:25:35.737Z,7.36
2023-05-17T11:28:09.235Z,7.35
2023-05-17T11:30:43.647Z,7.41
2023-05-17T11:33:21.036Z,7.44
2023-05-17T11:35:57.694Z,7.41
2023-05-17T11:38:30.525Z,7.51
2023-05-17T11:40:58.756Z,7.61
2023-05-17T11:43:31.034Z,7.59
2023-05-17T11:46:02.530Z,7.59
2023-05-17T11:48:31.722Z,7.62
2023-05-17T11:51:02.112Z,7.67
2023-05-17T11:53:32.612Z,7.55
2023-05-17T11:56:04.233Z,7.43
2023-05-17T11:58:33.252Z,7.42
2023-05-17T12:01:03.977Z,7.46
2023-05-17T12:03:33.408Z,7.50
2023-05-17T12:06:07.167Z,7.54
2023-05-17T12:08:36.265Z,7.55
2023-05-17T12:11:05.752Z,7.63
2023-05-17T12:13:36.241Z,7.68
2023-05-17T12:16:10.451Z,7.70
2023-05-17T12:18:39.185Z,7.66
2023-05-17T12:21:07.944Z,7.69
2023-05-17T12:23:39.651Z,7.74
2023-05-17T12:26:09.371Z,7.71
2023-05-17T12:28:38.302Z,7.73
2023-05-17T12:31:10.363Z,7.70
2023-05-17T12:33:41.341Z,7.65
2023-05-17T12:36:10.711Z,7.60
2023-05-17T12:38:41.349Z,7.60
2023-05-17T12:41:11.867Z,7.61
2023-05-17T12:43:40.732Z,7.60
2023-05-17T12:46:12.940Z,7.58
2023-05-17T12:48:42.314Z,7.57
2023-05-17T12:51:12.493Z,7.57
2023-05-17T12:53:41.838Z,7.59
2023-05-17T12:56:18.146Z,7.51
2023-05-17T12:59:04.343Z,7.54
2023-05-17T13:01:36.235Z,7.53
2023-05-17T13:04:04.890Z,7.49
2023-05-17T13:06:45.050Z,7.51
2023-05-17T13:09:14.483Z,7.48
2023-05-17T13:11:42.896Z,7.45
2023-05-17T13:14:12.515Z,7.48
2023-05-17T13:16:42.888Z,7.48
2023-05-17T13:19:15.272Z,7.54
2023-05-17T13:21:43.444Z,7.56
2023-05-17T13:24:11.655Z,7.54
2023-05-17T13:26:39.588Z,7.54
2023-05-17T13:29:07.619Z,7.58
2023-05-17T13:31:35.904Z,7.58
2023-05-17T13:34:05.346Z,7.51
2023-05-17T13:36:33.247Z,7.55
2023-05-17T13:39:02.030Z,7.59
2023-05-17T13:41:29.969Z,7.63
2023-05-17T13:43:58.391Z,7.64
2023-05-17T13:46:26.518Z,7.64
2023-05-17T13:48:54.617Z,7.65
2023-05-17T13:51:25.471Z,7.67
2023-05-17T13:53:53.508Z,7.70
2023-05-17T13:56:22.424Z,7.67
2023-05-17T13:58:50.643Z,7.68
2023-05-17T14:01:19.000Z,7.68
2023-05-17T14:03:47.262Z,7.71
2023-05-17T14:06:15.339Z,7.74
2023-05-17T14:08:46.300Z,7.79
2023-05-17T14:11:14.292Z,7.80
2023-05-17T14:13:42.814Z,7.82
2023-05-17T14:16:10.733Z,7.83
2023-05-17T14:18:38.886Z,7.91
2023-05-17T14:21:08.290Z,7.96
2023-05-17T14:23:36.758Z,8.00
2023-05-17T14:26:07.525Z,8.04
2023-05-17T14:28:38.265Z,8.02
2023-05-17T14:31:06.422Z,7.96
2023-05-17T14:33:34.729Z,7.91
2023-05-17T14:36:03.967Z,7.90
2023-05-17T14:38:32.231Z,7.88
2023-05-17T14:41:00.696Z,7.87
2023-05-17T14:43:30.248Z,7.86
2023-05-17T14:45:58.264Z,7.82
2023-05-17T14:48:26.423Z,7.88
2023-05-17T14:50:54.416Z,7.91
2023-05-17T14:53:23.530Z,7.93
2023-05-17T14:55:51.557Z,7.95
2023-05-17T14:58:20.987Z,7.98
2023-05-17T15:00:56.392Z,8.01
2023-05-17T15:03:33.477Z,8.08
2023-05-17T15:06:04.195Z,8.09
2023-05-17T15:08:34.764Z,8.13
2023-05-17T15:11:03.177Z,8.17
2023-05-17T15:13:34.136Z,8.21
2023-05-17T15:16:04.683Z,8.29
2023-05-17T15:18:36.607Z,8.39
2023-05-17T15:21:04.801Z,8.46
2023-05-17T15:23:32.945Z,8.56
2023-05-17T15:26:00.914Z,8.61
2023-05-17T15:28:28.937Z,8.66
2023-05-17T15:31:10.567Z,8.66
2023-05-17T15:33:39.575Z,8.69
2023-05-17T15:36:08.218Z,8.72
2023-05-17T15:38:36.461Z,8.73
2023-05-17T15:41:05.899Z,8.78
2023-05-17T15:43:35.054Z,8.81
2023-05-17T15:46:04.422Z,8.82
2023-05-17T15:48:34.067Z,8.85
2023-05-17T15:51:02.316Z,8.94
2023-05-17T15:53:31.250Z,9.02
2023-05-17T15:55:59.112Z,9.11
2023-05-17T15:58:28.688Z,9.23
2023-05-17T16:00:56.732Z,9.29
2023-05-17T16:03:26.193Z,9.41
2023-05-17T16:05:54.163Z,9.49
2023-05-17T16:08:23.260Z,9.55
2023-05-17T16:10:51.234Z,9.57
2023-05-17T16:13:19.233Z,9.57
2023-05-17T16:15:47.243Z,9.52
2023-05-17T16:18:15.506Z,9.34
2023-05-17T16:20:45.528Z,9.24
2023-05-17T16:23:13.473Z,9.20
2023-05-17T16:25:41.624Z,9.17
2023-05-17T16:28:09.506Z,9.16
2023-05-17T16:30:37.583Z,9.14
2023-05-17T16:33:07.702Z,9.14
2023-05-17T16:35:36.528Z,9.17
2023-05-17T16:38:05.912Z,9.19
2023-05-17T16:40:34.118Z,9.20
2023-05-17T16:43:02.259Z,9.17
2023-05-17T16:45:30.426Z,9.15
2023-05-17T16:47:58.569Z,9.13
2023-05-17T16:50:26.738Z,9.12
2023-05-17T16:52:54.690Z,9.09
2023-05-17T16:55:23.997Z,9.05
2023-05-17T16:57:52.065Z,9.02
2023-05-17T17:00:20.881Z,8.98
2023-05-17T17:02:48.901Z,8.99
2023-05-17T17:05:17.197Z,8.96
2023-05-17T17:07:45.971Z,8.95
2023-05-17T17:10:14.155Z,9.00
2023-05-17T17:12:43.511Z,9.05
2023-05-17T17:15:12.001Z,9.09
2023-05-17T17:17:40.237Z,9.10
2023-05-17T17:22:21.009Z,9.05
2023-05-17T17:24:48.923Z,9.04
2023-05-17T17:27:16.926Z,9.02
2023-05-17T17:29:44.836Z,8.99
2023-05-17T17:32:12.802Z,8.99
2023-05-17T17:34:40.997Z,8.97
2023-05-17T17:37:08.872Z,9.00
2023-05-17T17:39:38.219Z,9.04
2023-05-17T17:42:06.562Z,9.05
2023-05-17T17:44:34.562Z,9.10
2023-05-17T17:47:02.536Z,9.12
2023-05-17T17:49:31.038Z,9.17
2023-05-17T17:51:59.184Z,9.19
2023-05-17T17:54:27.153Z,9.22
2023-05-17T17:56:58.780Z,9.23
2023-05-17T17:59:26.767Z,9.24
2023-05-17T18:01:54.715Z,9.22
2023-05-17T18:04:22.779Z,9.20
2023-05-17T18:06:50.809Z,9.20
2023-05-17T18:09:18.756Z,9.19
2023-05-17T18:11:46.657Z,9.16
2023-05-17T18:14:16.114Z,9.15
2023-05-17T18:16:44.038Z,9.12
2023-05-17T18:19:12.104Z,9.09
2023-05-17T18:21:41.636Z,9.04
2023-05-17T18:24:10.229Z,9.01
2023-05-17T18:26:38.123Z,8.97
2023-05-17T18:29:06.233Z,8.94
2023-05-17T18:31:35.881Z,8.87
2023-05-17T18:34:04.151Z,8.84
2023-05-17T18:36:32.411Z,8.81
2023-05-17T18:39:01.076Z,8.74
2023-05-17T18:41:29.436Z,8.64
2023-05-17T18:44:01.961Z,8.58
2023-05-17T18:46:30.987Z,8.58
2023-05-17T18:49:00.739Z,8.50
2023-05-17T18:51:29.066Z,8.47
2023-05-17T18:53:57.358Z,8.41
2023-05-17T18:56:26.446Z,8.38
2023-05-17T18:58:55.053Z,8.37
2023-05-17T19:01:23.920Z,8.37
2023-05-17T19:03:55.334Z,8.40
2023-05-17T19:06:25.588Z,8.37
2023-05-17T19:08:54.644Z,8.33
2023-05-17T19:11:23.507Z,8.32
2023-05-17T19:13:51.875Z,8.27
2023-05-17T19:16:20.306Z,8.25
2023-05-17T19:18:48.693Z,8.26
2023-05-17T19:21:18.656Z,8.25
2023-05-17T19:23:49.599Z,8.19
2023-05-17T19:26:17.893Z,8.16
2023-05-17T19:28:46.658Z,8.10
2023-05-17T19:31:15.117Z,8.03
2023-05-17T19:33:43.685Z,8.01
2023-05-17T19:36:12.134Z,7.98
2023-05-17T19:38:40.465Z,7.95
2023-05-17T19:41:10.386Z,7.93
2023-05-17T19:43:38.774Z,7.91
2023-05-17T19:46:10.673Z,7.92
2023-05-17T19:48:40.789Z,7.88
2023-05-17T19:51:09.104Z,7.84
2023-05-17T19:53:51.543Z,7.81
2023-05-17T19:56:24.742Z,7.74
2023-05-17T19:58:54.228Z,7.71
2023-05-17T20:01:22.886Z,7.62
2023-05-17T20:03:52.439Z,7.58
2023-05-17T20:06:21.068Z,7.55
2023-05-17T20:08:49.408Z,7.58
2023-05-17T20:11:17.755Z,7.54
2023-05-17T20:13:47.689Z,7.48
2023-05-17T20:16:16.110Z,7.48
2023-05-17T20:18:45.790Z,7.46
2023-05-17T20:21:18.299Z,7.45
2023-05-17T20:23:47.317Z,7.43
2023-05-17T20:26:19.003Z,7.45
2023-05-17T20:28:48.743Z,7.44
2023-05-17T20:31:17.051Z,7.41
2023-05-17T20:33:45.354Z,7.34
2023-05-17T20:36:14.885Z,7.32
2023-05-17T20:38:43.833Z,7.22
2023-05-17T20:41:12.936Z,7.19
2023-05-17T20:43:40.922Z,7.11
2023-05-17T20:46:10.602Z,7.06
2023-05-17T20:48:39.641Z,7.07
2023-05-17T20:51:07.572Z,7.08
2023-05-17T20:53:35.572Z,7.10
2023-05-17T20:56:03.712Z,7.09
2023-05-17T20:58:32.003Z,7.08
2023-05-17T21:01:01.245Z,7.06
2023-05-17T21:03:33.334Z,7.06
2023-05-17T21:06:02.217Z,7.05
2023-05-17T21:08:30.188Z,6.97
2023-05-17T21:10:58.073Z,6.92
2023-05-17T21:13:26.483Z,6.96
2023-05-17T21:15:55.618Z,6.96
2023-05-17T21:18:24.292Z,6.93
2023-05-17T21:20:55.109Z,6.92
2023-05-17T21:23:23.121Z,6.90
2023-05-17T21:25:51.061Z,6.86
2023-05-17T21:28:19.049Z,6.82
2023-05-17T21:30:47.066Z,6.74
2023-05-17T21:33:15.111Z,6.66
2023-05-17T21:35:43.060Z,6.58
2023-05-17T21:38:12.418Z,6.46
2023-05-17T21:40:40.719Z,6.38
2023-05-17T21:43:09.894Z,6.33
2023-05-17T21:45:37.964Z,6.28
2023-05-17T21:48:06.625Z,6.19
2023-05-17T21:50:34.889Z,6.12
2023-05-17T21:53:03.498Z,6.08
2023-05-17T21:55:40.917Z,6.11
2023-05-17T21:58:16.335Z,6.10
2023-05-17T22:00:44.186Z,5.95
2023-05-17T22:03:12.371Z,5.87
2023-05-17T22:05:40.456Z,5.84
2023-05-17T22:08:08.444Z,5.84
2023-05-17T22:10:37.742Z,5.85
2023-05-17T22:13:08.088Z,5.84
2023-05-17T22:15:36.352Z,5.72
2023-05-17T22:18:05.260Z,5.70
2023-05-17T22:20:33.477Z,5.69
2023-05-17T22:23:01.570Z,5.64
2023-05-17T22:25:29.559Z,5.61
2023-05-17T22:27:58.876Z,5.54
2023-05-17T22:30:26.888Z,5.50
2023-05-17T22:32:57.233Z,5.43
2023-05-17T22:35:25.655Z,5.37
2023-05-17T22:37:53.726Z,5.39
2023-05-17T22:40:21.787Z,5.39
2023-05-17T22:42:51.910Z,5.41
2023-05-17T22:45:21.357Z,5.47
2023-05-17T22:47:50.774Z,5.47
2023-05-17T22:50:19.258Z,5.40
2023-05-17T22:52:47.330Z,5.28
2023-05-17T22:55:18.107Z,5.24
2023-05-17T22:57:49.164Z,5.21
2023-05-17T23:00:18.080Z,5.16
2023-05-17T23:02:47.598Z,5.11
2023-05-17T23:05:15.784Z,5.03
2023-05-17T23:07:43.968Z,5.03
2023-05-17T23:10:12.673Z,4.99
2023-05-17T23:12:40.666Z,5.01
2023-05-17T23:15:10.626Z,5.05
2023-05-17T23:17:39.092Z,5.02
2023-05-17T23:20:12.125Z,5.01
2023-05-17T23:22:40.671Z,4.94
2023-05-17T23:25:09.265Z,4.97
2023-05-17T23:27:37.502Z,4.89
2023-05-17T23:30:06.739Z,4.86
2023-05-17T23:32:34.996Z,4.87
2023-05-17T23:35:04.950Z,4.94
2023-05-17T23:37:34.834Z,4.95
2023-05-17T23:40:04.979Z,4.91
2023-05-17T23:42:32.913Z,4.80
2023-05-17T23:45:01.863Z,4.78
2023-05-17T23:47:30.781Z,4.68
2023-05-17T23:49:58.713Z,4.62
2023-05-17T23:52:30.065Z,4.58
2023-05-17T23:54:59.525Z,4.51
2023-05-17T23:57:27.377Z,4.51
2023-05-17T23:59:55.307Z,4.47
